Time;durP1;ratioP1;P1;durP2;ratioP2;P2;SDS_P1;SDS_P2;PMS_P1;PMS_P2;Temp;Humidity;BMP_temperature;BMP_pressure;BME280_temperature;BME280_humidity;BME280_pressure;Samples;Min_cycle;Max_cycle;Signal;HPM_P1;HPM_P2
2021/12/03 00:01:26;;;;;;;3.65;1.70;;;3.90;99.90;;;;;;5021935;28;20523;-90
2021/12/03 00:03:52;;;;;;;10.43;2.10;;;4.30;99.90;;;;;;5024783;28;20128;-89
2021/12/03 00:06:19;;;;;;;6.90;2.45;;;3.90;99.90;;;;;;5051923;28;20042;-89
2021/12/03 00:08:45;;;;;;;3.75;1.73;;;3.90;99.90;;;;;;5025477;28;20050;-90
2021/12/03 00:11:13;;;;;;;3.47;1.65;;;3.90;99.90;;;;;;5023115;28;20057;-91
2021/12/03 00:13:39;;;;;;;2.25;1.55;;;3.90;99.90;;;;;;5026181;28;20045;-89
2021/12/03 00:16:06;;;;;;;7.60;2.38;;;3.80;99.90;;;;;;5025780;28;20045;-90
2021/12/03 00:18:32;;;;;;;5.07;2.20;;;3.80;99.90;;;;;;5026325;28;20037;-90
2021/12/03 00:21:02;;;;;;;5.38;2.58;;;3.80;99.90;;;;;;5023057;28;20141;-90
2021/12/03 00:23:28;;;;;;;5.70;2.45;;;3.80;99.90;;;;;;5024275;28;20045;-91
2021/12/03 00:25:55;;;;;;;7.30;2.05;;;3.80;99.90;;;;;;5024831;28;20536;-90
2021/12/03 00:28:21;;;;;;;3.60;2.03;;;3.80;99.90;;;;;;5025776;28;20064;-90
2021/12/03 00:30:47;;;;;;;7.40;2.40;;;3.80;99.90;;;;;;5026020;28;20141;-89
2021/12/03 00:33:13;;;;;;;6.20;2.20;;;3.80;99.90;;;;;;5041350;28;20079;-91
2021/12/03 00:35:39;;;;;;;4.10;2.72;;;3.70;99.90;;;;;;5041252;28;20594;-91
2021/12/03 00:38:05;;;;;;;6.22;1.92;;;3.70;99.90;;;;;;5021600;28;20072;-90
2021/12/03 00:40:34;;;;;;;12.85;3.03;;;3.70;99.90;;;;;;5031345;28;20045;-89
2021/12/03 00:43:00;;;;;;;3.67;2.42;;;3.60;99.90;;;;;;5027044;28;20136;-91
2021/12/03 00:45:27;;;;;;;6.85;2.47;;;3.60;99.90;;;;;;5056416;28;20498;-90
2021/12/03 00:47:53;;;;;;;5.65;2.28;;;3.70;99.90;;;;;;5026015;28;20075;-90
2021/12/03 00:50:23;;;;;;;3.63;2.20;;;3.70;99.90;;;;;;5025573;28;20091;-90
2021/12/03 00:52:50;;;;;;;4.18;2.00;;;3.70;99.90;;;;;;5024304;28;20041;-91
2021/12/03 00:55:18;;;;;;;4.57;2.08;;;3.80;99.90;;;;;;5021167;28;20811;-90
2021/12/03 00:57:44;;;;;;;3.30;1.77;;;3.70;99.90;;;;;;5049388;28;20911;-89
2021/12/03 01:00:24;;;;;;;3.45;2.22;;;3.70;99.90;;;;;;5023223;28;20096;-89
2021/12/03 01:02:54;;;;;;;3.72;1.80;;;3.60;99.90;;;;;;5031960;28;20107;-91
2021/12/03 01:05:20;;;;;;;3.15;2.03;;;3.70;99.90;;;;;;5026469;28;20049;-91
2021/12/03 01:07:46;;;;;;;2.47;1.92;;;3.60;99.90;;;;;;5024833;28;20916;-90
2021/12/03 01:10:12;;;;;;;2.80;2.10;;;3.60;99.90;;;;;;5027844;28;20579;-90
2021/12/03 01:12:38;;;;;;;7.85;2.83;;;3.70;99.90;;;;;;5026996;28;20045;-91
2021/12/03 01:15:09;;;;;;;5.85;2.38;;;3.70;99.90;;;;;;5025746;28;20053;-91
2021/12/03 01:17:35;;;;;;;3.58;2.13;;;3.70;99.90;;;;;;5026730;28;20575;-91
2021/12/03 01:20:06;;;;;;;2.05;1.25;;;3.70;99.90;;;;;;5023911;28;20096;-91
2021/12/03 01:22:32;;;;;;;3.13;2.10;;;3.80;99.90;;;;;;5026299;28;20030;-90
2021/12/03 01:24:58;;;;;;;4.25;2.05;;;3.70;99.90;;;;;;5047672;28;20516;-91
2021/12/03 01:27:23;;;;;;;2.97;1.77;;;3.70;99.90;;;;;;5032911;28;20525;-91
2021/12/03 01:29:49;;;;;;;4.43;1.83;;;3.70;99.90;;;;;;5024446;28;20049;-91
2021/12/03 01:32:16;;;;;;;2.60;1.63;;;4.00;99.90;;;;;;5027397;28;20639;-91
2021/12/03 01:34:44;;;;;;;3.35;1.70;;;3.80;99.90;;;;;;5022552;28;20069;-91
2021/12/03 01:37:13;;;;;;;1.10;1.05;;;3.80;99.90;;;;;;5041735;28;20042;-90
2021/12/03 01:39:39;;;;;;;4.03;2.13;;;3.80;99.90;;;;;;5026113;28;20041;-90
2021/12/03 01:42:12;;;;;;;1.88;1.67;;;4.10;99.90;;;;;;5028991;28;20038;-90
2021/12/03 01:44:38;;;;;;;3.42;1.67;;;3.70;99.90;;;;;;5027370;28;20515;-90
2021/12/03 01:47:04;;;;;;;4.95;2.28;;;3.70;99.90;;;;;;5024150;28;20042;-90
2021/12/03 01:49:30;;;;;;;2.72;1.75;;;3.70;99.90;;;;;;5021956;28;20121;-89
2021/12/03 01:51:55;;;;;;;8.48;2.22;;;3.60;99.90;;;;;;5023152;28;20133;-91
2021/12/03 01:54:21;;;;;;;1.95;1.65;;;3.70;99.90;;;;;;5024364;28;20045;-91
2021/12/03 01:56:47;;;;;;;4.38;2.05;;;3.70;99.90;;;;;;5020123;28;20077;-91
2021/12/03 01:59:13;;;;;;;2.78;1.73;;;3.70;99.90;;;;;;5040452;28;20538;-89
2021/12/03 02:01:39;;;;;;;3.45;1.95;;;4.00;99.90;;;;;;5032068;28;20587;-90
2021/12/03 02:04:05;;;;;;;4.93;2.30;;;3.60;99.90;;;;;;5030761;28;20046;-91
2021/12/03 02:06:33;;;;;;;4.95;2.03;;;3.80;99.90;;;;;;5029454;28;20678;-89
2021/12/03 02:08:59;;;;;;;4.60;2.58;;;3.80;99.90;;;;;;5023551;28;20499;-91
2021/12/03 02:11:25;;;;;;;2.45;1.65;;;3.70;99.90;;;;;;5026059;28;20882;-91
2021/12/03 02:13:51;;;;;;;4.78;2.80;;;3.70;99.90;;;;;;5044324;28;20056;-91
2021/12/03 02:16:18;;;;;;;2.90;2.38;;;3.70;99.90;;;;;;5042994;28;20439;-91
2021/12/03 02:18:44;;;;;;;4.07;1.88;;;3.70;99.90;;;;;;5023041;28;20105;-90
2021/12/03 02:21:11;;;;;;;3.17;1.58;;;3.80;99.90;;;;;;5025533;28;20041;-91
2021/12/03 02:23:39;;;;;;;2.25;1.73;;;3.80;99.90;;;;;;5024498;28;20519;-91
2021/12/03 02:26:05;;;;;;;3.15;1.52;;;3.80;99.90;;;;;;5043936;28;20609;-90
2021/12/03 02:28:34;;;;;;;5.38;2.20;;;3.70;99.90;;;;;;5037856;28;20069;-90
2021/12/03 02:31:01;;;;;;;4.13;1.52;;;3.70;99.90;;;;;;5026294;28;20041;-90
2021/12/03 02:33:27;;;;;;;5.03;2.55;;;3.70;99.90;;;;;;5034427;28;20041;-91
2021/12/03 02:35:53;;;;;;;2.65;1.73;;;3.70;99.90;;;;;;5021073;28;20048;-91
2021/12/03 02:38:22;;;;;;;2.47;1.65;;;3.70;99.90;;;;;;5023095;28;20041;-91
2021/12/03 02:40:48;;;;;;;2.58;1.65;;;3.70;99.90;;;;;;5022293;28;20038;-91
2021/12/03 02:43:14;;;;;;;3.90;2.55;;;3.70;99.90;;;;;;5020371;28;20086;-91
2021/12/03 02:45:40;;;;;;;4.30;2.40;;;3.80;99.90;;;;;;5028907;28;20050;-91
2021/12/03 02:48:06;;;;;;;4.97;2.00;;;3.70;99.90;;;;;;5020079;28;20042;-91
2021/12/03 02:50:32;;;;;;;5.72;1.88;;;3.70;99.90;;;;;;5025445;28;20161;-91
2021/12/03 02:52:59;;;;;;;3.70;2.42;;;3.80;99.90;;;;;;5022260;28;20056;-91
2021/12/03 02:55:25;;;;;;;2.00;1.58;;;3.80;99.90;;;;;;5024585;28;20064;-91
2021/12/03 02:57:51;;;;;;;2.58;1.70;;;3.80;99.90;;;;;;5023782;28;20042;-91
2021/12/03 03:00:19;;;;;;;1.92;1.40;;;3.80;99.90;;;;;;5023918;28;20045;-91
2021/12/03 03:02:45;;;;;;;4.10;2.35;;;3.80;99.90;;;;;;5028151;28;20045;-92
2021/12/03 03:05:14;;;;;;;2.38;1.60;;;3.80;99.90;;;;;;5054689;28;20038;-90
2021/12/03 03:07:40;;;;;;;3.85;2.40;;;3.70;99.90;;;;;;5021300;28;20160;-91
2021/12/03 03:10:10;;;;;;;3.80;2.22;;;4.10;99.90;;;;;;5039424;28;21008;-90
2021/12/03 03:12:38;;;;;;;3.83;1.95;;;3.70;99.90;;;;;;5026097;28;20056;-90
2021/12/03 03:15:05;;;;;;;3.67;1.60;;;3.70;99.90;;;;;;5031833;28;20515;-90
2021/12/03 03:17:32;;;;;;;2.53;1.85;;;3.70;99.90;;;;;;5026605;28;21786;-90
2021/12/03 03:20:01;;;;;;;3.80;2.30;;;3.70;99.90;;;;;;5055570;28;20545;-90
2021/12/03 03:22:28;;;;;;;3.42;1.90;;;3.70;99.90;;;;;;5045985;28;20135;-91
2021/12/03 03:24:59;;;;;;;2.90;1.70;;;3.70;99.90;;;;;;5024083;28;20125;-91
2021/12/03 03:27:26;;;;;;;5.47;1.77;;;3.70;99.90;;;;;;5026308;28;20053;-90
2021/12/03 03:29:53;;;;;;;3.08;1.88;;;3.70;99.90;;;;;;5045946;28;20033;-91
2021/12/03 03:32:19;;;;;;;1.65;1.30;;;3.80;99.90;;;;;;5029819;28;20038;-89
2021/12/03 03:34:48;;;;;;;2.33;1.60;;;3.80;99.90;;;;;;5025831;28;20042;-91
2021/12/03 03:37:15;;;;;;;6.93;2.20;;;4.10;99.90;;;;;;5028145;28;20041;-91
2021/12/03 03:39:41;;;;;;;5.10;1.55;;;4.30;99.90;;;;;;5027138;28;20050;-91
2021/12/03 03:42:07;;;;;;;3.78;1.85;;;4.20;99.90;;;;;;5034144;28;20089;-91
2021/12/03 03:44:34;;;;;;;2.72;1.80;;;3.80;99.90;;;;;;5039444;28;20411;-92
2021/12/03 03:47:01;;;;;;;3.97;1.67;;;3.80;99.90;;;;;;5029921;28;20041;-91
2021/12/03 03:49:29;;;;;;;2.58;1.77;;;3.80;99.90;;;;;;5047087;28;20042;-90
2021/12/03 03:51:55;;;;;;;3.33;1.95;;;3.80;99.90;;;;;;5045243;28;20969;-91
2021/12/03 03:54:21;;;;;;;3.80;1.80;;;4.20;99.90;;;;;;5036957;28;20115;-91
2021/12/03 03:56:48;;;;;;;1.45;0.88;;;3.80;99.90;;;;;;5028888;28;20058;-91
2021/12/03 03:59:17;;;;;;;4.22;2.15;;;3.90;99.90;;;;;;5033920;28;20060;-91
2021/12/03 04:01:48;;;;;;;4.95;1.75;;;4.20;99.90;;;;;;5042869;28;20586;-90
2021/12/03 04:04:14;;;;;;;3.40;1.55;;;4.00;99.90;;;;;;5030062;28;20037;-91
2021/12/03 04:06:40;;;;;;;3.03;1.38;;;3.90;99.90;;;;;;5051634;28;20875;-90
2021/12/03 04:09:11;;;;;;;5.50;1.92;;;3.90;99.90;;;;;;5026810;28;20042;-91
2021/12/03 04:11:38;;;;;;;4.03;2.13;;;3.90;99.90;;;;;;5029932;28;20085;-89
2021/12/03 04:14:04;;;;;;;4.35;1.55;;;3.90;99.90;;;;;;5045847;28;20100;-91
2021/12/03 04:16:38;;;;;;;2.20;1.85;;;3.90;99.90;;;;;;5033032;28;20579;-91
2021/12/03 04:19:04;;;;;;;5.30;1.63;;;4.00;99.90;;;;;;5031198;28;20041;-91
2021/12/03 04:21:32;;;;;;;3.20;1.73;;;4.10;99.90;;;;;;5044896;28;20050;-91
2021/12/03 04:23:58;;;;;;;3.83;1.85;;;4.30;99.90;;;;;;5028282;28;20037;-91
2021/12/03 04:26:24;;;;;;;2.10;1.42;;;4.00;99.90;;;;;;5024761;28;20511;-91
2021/12/03 04:28:50;;;;;;;4.63;1.88;;;4.00;99.90;;;;;;5034707;28;20045;-91
2021/12/03 04:31:15;;;;;;;4.10;1.52;;;4.00;99.90;;;;;;5026207;28;20042;-91
2021/12/03 04:33:41;;;;;;;2.50;1.63;;;4.00;99.90;;;;;;5047737;28;20045;-90
2021/12/03 04:36:08;;;;;;;3.55;2.05;;;4.00;99.90;;;;;;5027209;28;20590;-91
2021/12/03 04:38:38;;;;;;;3.85;1.70;;;4.00;99.90;;;;;;5035723;28;20924;-90
2021/12/03 04:41:04;;;;;;;4.30;2.10;;;4.00;99.90;;;;;;5027613;28;20053;-91
2021/12/03 04:43:30;;;;;;;2.33;1.50;;;4.10;99.90;;;;;;5030956;28;20046;-91
2021/12/03 04:45:56;;;;;;;4.70;1.70;;;3.90;99.90;;;;;;5027825;28;20038;-91
2021/12/03 04:48:22;;;;;;;3.45;2.22;;;4.00;99.90;;;;;;5032578;28;20124;-91
2021/12/03 04:50:48;;;;;;;3.70;1.45;;;4.00;99.90;;;;;;5031156;28;20046;-91
2021/12/03 04:53:17;;;;;;;1.77;1.52;;;4.00;99.90;;;;;;5033472;28;20045;-91
2021/12/03 04:55:43;;;;;;;5.47;1.85;;;4.00;99.90;;;;;;5031079;28;20053;-91
2021/12/03 04:58:09;;;;;;;2.90;1.30;;;3.90;99.90;;;;;;5023858;28;20061;-91
2021/12/03 05:00:50;;;;;;;8.88;1.30;;;4.40;99.90;;;;;;5025770;28;20049;-90
2021/12/03 05:03:16;;;;;;;2.60;1.47;;;3.60;99.90;;;;;;5030835;28;20046;-91
2021/12/03 05:05:48;;;;;;;3.65;2.08;;;4.00;99.90;;;;;;5025582;28;20516;-91
2021/12/03 05:08:16;;;;;;;2.10;1.35;;;4.10;99.90;;;;;;5029391;28;20052;-90
2021/12/03 05:10:44;;;;;;;3.67;1.63;;;4.00;99.90;;;;;;5040258;28;20273;-91
2021/12/03 05:13:19;;;;;;;5.15;1.42;;;4.10;99.90;;;;;;5030738;28;20049;-91
2021/12/03 05:15:46;;;;;;;3.92;1.60;;;4.10;99.90;;;;;;5024828;28;20046;-91
2021/12/03 05:18:15;;;;;;;3.90;2.15;;;4.10;99.90;;;;;;5030421;28;20037;-90
2021/12/03 05:20:42;;;;;;;9.27;1.80;;;4.20;99.90;;;;;;5031680;28;20485;-91
2021/12/03 05:23:09;;;;;;;3.45;1.50;;;4.10;99.90;;;;;;5029964;28;20042;-91
2021/12/03 05:25:42;;;;;;;4.57;1.60;;;4.10;99.90;;;;;;5042327;28;20046;-90
2021/12/03 05:28:10;;;;;;;3.78;1.33;;;4.10;99.90;;;;;;5028164;28;20050;-91
2021/12/03 05:30:40;;;;;;;3.35;1.38;;;4.10;99.90;;;;;;5026504;28;20022;-91
2021/12/03 05:33:08;;;;;;;1.27;1.17;;;4.10;99.90;;;;;;5045338;28;20132;-91
2021/12/03 05:35:35;;;;;;;4.20;1.58;;;4.20;99.90;;;;;;5033013;28;20096;-91
2021/12/03 05:38:01;;;;;;;2.10;1.58;;;4.10;99.90;;;;;;5029801;28;20592;-90
2021/12/03 05:40:27;;;;;;;4.47;2.17;;;4.40;99.90;;;;;;5026352;28;20041;-91
2021/12/03 05:42:54;;;;;;;3.70;1.88;;;4.20;99.90;;;;;;5032672;28;20060;-91
2021/12/03 05:45:25;;;;;;;2.65;1.75;;;4.20;99.90;;;;;;5027873;28;20030;-91
2021/12/03 05:47:51;;;;;;;4.60;1.90;;;4.20;99.90;;;;;;5031443;28;20068;-91
2021/12/03 05:50:18;;;;;;;5.85;1.60;;;4.20;99.90;;;;;;5028061;28;20102;-91
2021/12/03 05:52:45;;;;;;;2.53;1.92;;;4.10;99.90;;;;;;5022339;28;20049;-91
2021/12/03 05:55:12;;;;;;;3.85;1.60;;;4.30;99.90;;;;;;5028390;28;20096;-91
2021/12/03 05:57:38;;;;;;;2.38;1.45;;;4.10;99.90;;;;;;5028758;28;20057;-90
2021/12/03 06:00:07;;;;;;;7.43;1.70;;;4.10;99.90;;;;;;5041942;28;20065;-91
2021/12/03 06:02:33;;;;;;;6.32;2.22;;;4.00;99.90;;;;;;5025454;28;20046;-89
2021/12/03 06:04:59;;;;;;;2.97;1.85;;;3.90;99.90;;;;;;5022890;28;20107;-89
2021/12/03 06:07:26;;;;;;;5.80;1.58;;;3.90;99.90;;;;;;5030728;28;20065;-88
2021/12/03 06:09:52;;;;;;;4.28;1.42;;;3.90;99.90;;;;;;5065936;28;20084;-88
2021/12/03 06:12:17;;;;;;;5.07;1.98;;;3.90;99.90;;;;;;5027631;28;20526;-88
2021/12/03 06:14:43;;;;;;;4.45;1.40;;;4.00;99.90;;;;;;5021422;28;20050;-89
2021/12/03 06:17:12;;;;;;;2.33;1.48;;;3.90;99.90;;;;;;5040296;28;20053;-90
2021/12/03 06:19:39;;;;;;;4.55;1.92;;;3.90;99.90;;;;;;5024054;28;20042;-90
2021/12/03 06:22:14;;;;;;;2.05;1.58;;;3.90;99.90;;;;;;5038553;28;20519;-91
2021/12/03 06:24:41;;;;;;;5.10;1.83;;;3.90;99.90;;;;;;5043689;28;20049;-89
2021/12/03 06:27:16;;;;;;;2.40;1.42;;;4.00;99.90;;;;;;5035907;28;20042;-90
2021/12/03 06:29:42;;;;;;;4.10;2.15;;;4.00;99.90;;;;;;5059637;28;20050;-90
2021/12/03 06:32:10;;;;;;;3.88;1.77;;;4.10;99.90;;;;;;5032058;28;20046;-92
2021/12/03 06:34:39;;;;;;;2.50;1.65;;;4.10;99.90;;;;;;5049584;28;20092;-86
2021/12/03 06:37:05;;;;;;;9.13;1.90;;;4.10;99.90;;;;;;5030028;28;20069;-91
2021/12/03 06:39:31;;;;;;;4.93;1.45;;;4.20;99.90;;;;;;5037102;28;20052;-91
2021/12/03 06:41:57;;;;;;;3.60;1.73;;;4.20;99.90;;;;;;5031298;28;20057;-91
2021/12/03 06:44:25;;;;;;;5.38;1.83;;;4.40;99.90;;;;;;5028872;28;20042;-91
2021/12/03 06:46:53;;;;;;;7.90;1.90;;;4.20;99.90;;;;;;5036584;28;20046;-90
2021/12/03 06:49:23;;;;;;;3.17;1.70;;;4.20;99.90;;;;;;5029608;28;20080;-90
2021/12/03 06:51:58;;;;;;;3.08;2.35;;;4.20;99.90;;;;;;5029273;28;20038;-91
2021/12/03 06:54:26;;;;;;;2.95;1.90;;;4.20;99.90;;;;;;5044543;28;20053;-91
2021/12/03 06:56:52;;;;;;;1.70;1.25;;;4.20;99.90;;;;;;5043081;28;20561;-90
2021/12/03 06:59:22;;;;;;;5.80;1.85;;;4.60;99.90;;;;;;5026520;28;20109;-91
2021/12/03 07:01:49;;;;;;;3.88;1.75;;;4.60;99.90;;;;;;5026993;28;20111;-91
2021/12/03 07:04:15;;;;;;;3.33;2.08;;;4.30;99.90;;;;;;5027194;28;20052;-92
2021/12/03 07:06:41;;;;;;;4.32;2.20;;;4.30;99.90;;;;;;5026171;28;20756;-91
2021/12/03 07:09:07;;;;;;;3.28;1.83;;;4.30;99.90;;;;;;5035642;28;20050;-91
2021/12/03 07:11:35;;;;;;;3.33;1.63;;;4.30;99.90;;;;;;5040445;28;20050;-91
2021/12/03 07:14:01;;;;;;;4.25;2.10;;;4.30;99.90;;;;;;5042921;28;20096;-90
2021/12/03 07:16:27;;;;;;;1.42;1.05;;;4.30;99.90;;;;;;5040666;28;20045;-93
2021/12/03 07:18:53;;;;;;;4.63;2.08;;;4.30;99.90;;;;;;5057118;28;20027;-90
2021/12/03 07:21:19;;;;;;;2.63;1.83;;;4.30;99.90;;;;;;5062738;28;20031;-89
2021/12/03 07:23:45;;;;;;;5.13;2.33;;;4.20;99.90;;;;;;5048507;28;20092;-89
2021/12/03 07:26:11;;;;;;;4.07;1.88;;;4.30;99.90;;;;;;5042927;28;20057;-91
2021/12/03 07:28:37;;;;;;;1.83;1.58;;;4.30;99.90;;;;;;5038196;28;20509;-90
2021/12/03 07:31:03;;;;;;;10.20;2.90;;;4.20;99.90;;;;;;5034740;28;20053;-91
2021/12/03 07:33:31;;;;;;;2.58;1.80;;;4.20;99.90;;;;;;5042856;28;20046;-91
2021/12/03 07:35:57;;;;;;;5.55;1.50;;;4.30;99.90;;;;;;5024399;28;20045;-91
2021/12/03 07:38:22;;;;;;;4.65;2.45;;;4.20;99.90;;;;;;5026141;28;20164;-91
2021/12/03 07:40:49;;;;;;;2.20;1.85;;;4.20;99.90;;;;;;5028134;28;20038;-92
2021/12/03 07:43:16;;;;;;;3.40;1.75;;;4.20;99.90;;;;;;5024075;28;20038;-91
2021/12/03 07:45:42;;;;;;;4.40;1.90;;;4.20;99.90;;;;;;5039477;28;20108;-90
2021/12/03 07:48:08;;;;;;;2.50;1.40;;;4.20;99.90;;;;;;5031709;28;20053;-91
2021/12/03 07:50:36;;;;;;;5.35;2.05;;;4.20;99.90;;;;;;5032891;28;20542;-91
2021/12/03 07:53:03;;;;;;;4.82;2.72;;;4.30;99.90;;;;;;5028412;28;20045;-91
2021/12/03 07:55:29;;;;;;;4.78;2.15;;;4.30;99.90;;;;;;5035359;28;20057;-90
2021/12/03 07:57:55;;;;;;;1.67;1.20;;;4.30;99.90;;;;;;5031505;28;20100;-91
2021/12/03 08:00:23;;;;;;;4.35;1.77;;;4.30;99.90;;;;;;5021917;28;20492;-91
2021/12/03 08:02:54;;;;;;;3.67;2.58;;;4.20;99.90;;;;;;5032916;28;20046;-91
2021/12/03 08:05:20;;;;;;;2.33;1.42;;;4.30;99.90;;;;;;5029630;28;20033;-91
2021/12/03 08:07:46;;;;;;;5.53;2.40;;;4.20;99.90;;;;;;5031657;28;20045;-91
2021/12/03 08:10:14;;;;;;;2.40;1.77;;;4.30;99.90;;;;;;5035021;28;20064;-91
2021/12/03 08:12:40;;;;;;;3.05;2.10;;;4.30;99.90;;;;;;5028423;28;20150;-91
2021/12/03 08:15:07;;;;;;;3.33;2.60;;;4.30;99.90;;;;;;5026809;28;20178;-91
2021/12/03 08:17:38;;;;;;;2.25;1.50;;;4.30;99.90;;;;;;5026487;28;20050;-90
2021/12/03 08:20:08;;;;;;;2.55;1.30;;;4.70;99.90;;;;;;5037570;28;20072;-91
2021/12/03 08:22:35;;;;;;;3.60;1.85;;;4.30;99.90;;;;;;5032389;28;20092;-90
2021/12/03 08:25:01;;;;;;;6.85;2.08;;;4.30;99.90;;;;;;5034915;28;20037;-91
2021/12/03 08:27:27;;;;;;;1.13;1.02;;;4.30;99.90;;;;;;5030918;28;20037;-90
2021/12/03 08:29:53;;;;;;;5.70;1.88;;;4.30;99.90;;;;;;5033622;28;20038;-91
2021/12/03 08:32:19;;;;;;;1.50;1.30;;;4.40;99.90;;;;;;5031922;28;20439;-90
2021/12/03 08:34:45;;;;;;;4.82;1.42;;;4.60;99.90;;;;;;5031854;28;20053;-90
2021/12/03 08:37:11;;;;;;;2.45;1.38;;;4.40;99.90;;;;;;5031260;28;20050;-91
2021/12/03 08:39:38;;;;;;;2.67;1.40;;;4.40;99.90;;;;;;5032317;28;20046;-90
2021/12/03 08:42:07;;;;;;;1.83;1.20;;;4.40;99.90;;;;;;5040389;28;20125;-91
2021/12/03 08:44:32;;;;;;;1.65;1.55;;;4.40;99.90;;;;;;5030033;28;20057;-91
2021/12/03 08:47:02;;;;;;;2.38;1.60;;;4.50;99.90;;;;;;5031367;28;20072;-91
2021/12/03 08:49:38;;;;;;;2.33;1.27;;;4.40;99.90;;;;;;5032473;28;20044;-91
2021/12/03 08:54:52;;;;;;;1.67;1.27;;;4.30;99.90;;;;;;5032503;28;20109;-91
2021/12/03 08:57:25;;;;;;;2.22;1.50;;;4.40;99.90;;;;;;5047520;28;20092;-91
2021/12/03 08:59:55;;;;;;;5.90;1.33;;;4.40;99.90;;;;;;5025752;28;20053;-90
2021/12/03 09:02:22;;;;;;;1.60;1.50;;;4.40;99.90;;;;;;5027415;28;20562;-90
2021/12/03 09:04:48;;;;;;;3.13;1.17;;;4.40;99.90;;;;;;5024054;28;20042;-90
2021/12/03 09:07:15;;;;;;;0.98;0.90;;;4.40;99.90;;;;;;5019783;28;20205;-89
2021/12/03 09:09:40;;;;;;;3.75;1.20;;;4.70;99.90;;;;;;5023886;28;20382;-90
2021/12/03 09:12:08;;;;;;;2.10;1.13;;;4.40;99.90;;;;;;5022454;28;20042;-90
2021/12/03 09:19:53;;;;;;;3.13;1.42;;;4.30;99.90;;;;;;5029425;28;20049;-89
2021/12/03 09:25:07;;;;;;;1.88;1.15;;;4.30;99.90;;;;;;5029291;28;20554;-90
2021/12/03 09:27:34;;;;;;;2.15;1.40;;;4.30;99.90;;;;;;5041618;28;20054;-90
2021/12/03 09:30:00;;;;;;;1.08;0.82;;;4.50;99.90;;;;;;5029915;28;20056;-91
2021/12/03 09:32:30;;;;;;;2.35;0.70;;;4.50;99.90;;;;;;5035948;28;20102;-91
2021/12/03 09:34:56;;;;;;;2.67;1.50;;;4.70;99.90;;;;;;5028298;28;20041;-90
2021/12/03 09:37:23;;;;;;;0.93;0.85;;;4.50;99.90;;;;;;5033253;28;20049;-91
2021/12/03 09:39:49;;;;;;;0.77;0.70;;;4.40;99.90;;;;;;5028766;28;20042;-90
2021/12/03 09:42:19;;;;;;;1.60;1.02;;;4.50;99.90;;;;;;5048981;28;20046;-91
2021/12/03 09:44:46;;;;;;;2.15;1.02;;;4.50;99.90;;;;;;5031770;28;20044;-90
2021/12/03 09:47:16;;;;;;;1.90;1.08;;;4.70;99.90;;;;;;5034208;28;20046;-91
2021/12/03 09:49:42;;;;;;;1.63;1.50;;;4.50;99.90;;;;;;5026092;28;20067;-90
2021/12/03 09:54:45;;;;;;;2.08;1.35;;;5.00;99.90;;;;;;5026771;28;20108;-91
2021/12/03 09:57:18;;;;;;;1.60;1.35;;;4.60;99.90;;;;;;5022802;28;20050;-90
2021/12/03 10:02:55;;;;;;;2.25;1.55;;;5.00;99.90;;;;;;5023174;28;20413;-90
2021/12/03 10:13:32;;;;;;;4.35;2.13;;;4.70;99.90;;;;;;5028340;28;20139;-91
2021/12/03 10:18:55;;;;;;;2.13;1.48;;;4.60;99.90;;;;;;5036477;28;20074;-90
2021/12/03 10:42:06;;;;;;;3.53;1.70;;;4.70;99.90;;;;;;5024422;28;20034;-82
2021/12/03 10:49:48;;;;;;;3.72;1.42;;;4.80;99.90;;;;;;5024940;28;20489;-81
2021/12/03 11:05:44;;;;;;;2.03;1.13;;;4.90;99.90;;;;;;5019966;28;20058;-81
2021/12/03 11:08:23;;;;;;;2.80;1.83;;;4.90;99.90;;;;;;5023273;28;20053;-81
2021/12/03 13:09:08;;;;;;;0.95;0.70;;;5.50;99.90;;;;;;5027698;28;20180;-83
2021/12/03 13:27:19;;;;;;;1.15;0.90;;;5.70;99.90;;;;;;5022209;28;20140;-83
2021/12/03 14:05:21;;;;;;;3.03;1.27;;;5.80;99.90;;;;;;5025370;28;20054;-81
2021/12/03 14:44:10;;;;;;;3.95;1.52;;;5.80;99.90;;;;;;5024220;28;20045;-83
2021/12/03 14:46:50;;;;;;;2.15;1.92;;;5.80;99.90;;;;;;5019801;28;20073;-83
2021/12/03 14:56:46;;;;;;;2.25;1.48;;;5.80;99.90;;;;;;5020053;28;20121;-82
2021/12/03 14:59:24;;;;;;;2.45;1.75;;;5.80;99.90;;;;;;5016921;28;20041;-83
2021/12/03 15:02:11;;;;;;;2.60;1.88;;;5.70;99.90;;;;;;5025057;28;20042;-82
2021/12/03 15:07:45;;;;;;;2.17;1.40;;;6.00;99.90;;;;;;5041826;28;20043;-82
2021/12/03 15:10:29;;;;;;;3.30;1.40;;;5.80;99.90;;;;;;5045282;28;20037;-82
2021/12/03 15:13:11;;;;;;;1.48;1.05;;;5.80;99.90;;;;;;5029117;28;20572;-83
2021/12/03 15:24:28;;;;;;;1.77;1.02;;;5.80;99.90;;;;;;5031836;28;20546;-83
2021/12/03 15:26:59;;;;;;;1.52;1.02;;;6.20;99.90;;;;;;5030048;28;20127;-82
2021/12/03 15:32:40;;;;;;;2.13;1.33;;;6.00;99.90;;;;;;5023917;28;20042;-83
2021/12/03 15:34:46;;;;;;;2.15;1.52;;;5.80;99.90;;;;;;5019857;28;20050;-83
2021/12/03 15:39:54;;;;;;;2.28;1.35;;;5.90;99.90;;;;;;5028964;28;20540;-83
2021/12/03 15:54:18;;;;;;;3.92;1.80;;;6.00;99.90;;;;;;5020828;28;20049;-83
2021/12/03 15:56:19;;;;;;;3.20;1.92;;;6.30;99.90;;;;;;5017997;28;20523;-83
2021/12/03 16:11:55;;;;;;;2.28;1.27;;;6.10;99.90;;;;;;5026685;28;20053;-83
2021/12/03 16:22:28;;;;;;;2.65;1.50;;;6.10;99.90;;;;;;5025755;28;20054;-82
2021/12/03 16:49:44;;;;;;;3.63;2.58;;;6.60;99.90;;;;;;5027807;28;20045;-82
2021/12/03 16:54:10;;;;;;;3.70;1.90;;;6.30;99.90;;;;;;5016339;28;20120;-82
2021/12/03 16:56:42;;;;;;;5.13;2.13;;;6.30;99.90;;;;;;5019276;28;20519;-82
2021/12/03 16:59:08;;;;;;;;;;;6.30;99.90;;;;;;5054162;28;20223;-82
2021/12/03 17:04:36;;;;;;;2.95;1.77;;;6.30;99.90;;;;;;5027148;28;20057;-82
2021/12/03 17:10:08;;;;;;;4.95;2.42;;;6.30;99.90;;;;;;5018283;28;20487;-82
2021/12/03 17:15:33;;;;;;;3.65;2.25;;;6.40;99.90;;;;;;5028399;28;20049;-82
2021/12/03 17:47:58;;;;;;;4.35;1.77;;;6.60;99.90;;;;;;5033569;28;20038;-80
2021/12/03 17:53:27;;;;;;;4.55;2.55;;;6.70;99.90;;;;;;5042109;28;20054;-81
2021/12/03 17:58:41;;;;;;;3.05;1.85;;;6.70;99.90;;;;;;5046811;28;20084;-81
2021/12/03 18:17:58;;;;;;;2.33;1.45;;;6.90;99.90;;;;;;4985455;28;20570;-84
2021/12/03 18:45:24;;;;;;;2.88;1.52;;;7.20;99.90;;;;;;5015792;28;20046;-81
2021/12/03 18:55:49;;;;;;;1.52;1.10;;;7.30;99.90;;;;;;5016857;28;20045;-83
2021/12/03 18:58:15;;;;;;;3.15;1.30;;;7.30;99.90;;;;;;5020732;28;20054;-83
2021/12/03 19:00:44;;;;;;;2.53;1.58;;;7.40;99.90;;;;;;5014712;28;20038;-84
2021/12/03 19:05:54;;;;;;;2.13;1.73;;;7.40;99.90;;;;;;5018791;28;20048;-84
2021/12/03 19:08:43;;;;;;;3.85;2.20;;;7.40;99.90;;;;;;5032355;28;20042;-85
2021/12/03 19:11:57;;;;;;;3.53;1.77;;;7.40;99.90;;;;;;5014766;28;20544;-85
2021/12/03 19:13:55;;;;;;;1.30;1.20;;;7.50;99.90;;;;;;5003348;28;20616;-86
2021/12/03 19:16:24;;;;;;;2.83;1.40;;;7.50;99.90;;;;;;5012347;28;20052;-86
2021/12/03 19:18:54;;;;;;;3.72;2.08;;;7.50;99.90;;;;;;5028291;28;20046;-86
2021/12/03 19:21:24;;;;;;;2.65;1.50;;;7.50;99.90;;;;;;5021661;28;20052;-86
2021/12/03 19:23:57;;;;;;;2.10;1.50;;;7.50;99.90;;;;;;5017924;28;20123;-85
2021/12/03 19:26:23;;;;;;;1.98;1.25;;;7.60;99.90;;;;;;5017621;28;20495;-86
2021/12/03 19:28:50;;;;;;;2.72;1.70;;;7.60;99.90;;;;;;5018119;28;20121;-85
2021/12/03 19:31:17;;;;;;;3.75;1.67;;;7.60;99.90;;;;;;5018138;28;20545;-85
2021/12/03 19:33:43;;;;;;;6.70;2.35;;;7.70;99.90;;;;;;5035933;28;20038;-84
2021/12/03 19:36:10;;;;;;;4.93;2.42;;;7.70;99.90;;;;;;5046441;28;20042;-85
2021/12/03 19:38:38;;;;;;;4.47;2.13;;;7.70;99.90;;;;;;5017678;28;20045;-85
2021/12/03 19:41:23;;;;;;;4.22;1.60;;;7.70;99.90;;;;;;5028446;28;20198;-85
2021/12/03 19:43:54;;;;;;;4.13;1.95;;;7.70;99.90;;;;;;5016808;28;20042;-85
2021/12/03 19:46:26;;;;;;;2.67;1.70;;;7.80;99.90;;;;;;5016686;28;20046;-86
2021/12/03 19:51:21;;;;;;;2.55;2.20;;;7.90;99.90;;;;;;5020696;28;19921;-84
2021/12/03 19:53:59;;;;;;;3.75;2.08;;;7.90;99.90;;;;;;5037066;28;20045;-85
2021/12/03 19:56:27;;;;;;;5.32;2.38;;;8.30;99.90;;;;;;5015341;28;20100;-85
2021/12/03 19:58:53;;;;;;;3.08;1.83;;;8.00;99.90;;;;;;5020062;28;20089;-84
2021/12/03 20:01:20;;;;;;;5.43;2.78;;;8.00;99.90;;;;;;5018405;28;20049;-84
2021/12/03 20:03:48;;;;;;;5.53;2.63;;;8.00;99.90;;;;;;5033217;28;20042;-85
2021/12/03 20:06:18;;;;;;;3.85;2.08;;;8.10;99.90;;;;;;5019628;28;20655;-85
2021/12/03 20:08:44;;;;;;;3.10;1.70;;;8.10;99.90;;;;;;5036108;28;20140;-85
2021/12/03 20:11:10;;;;;;;4.72;2.05;;;8.10;99.90;;;;;;5020695;28;20439;-84
2021/12/03 20:13:41;;;;;;;3.08;2.30;;;8.10;99.90;;;;;;5021284;28;20099;-85
2021/12/03 20:19:31;;;;;;;3.63;1.77;;;8.20;99.90;;;;;;5018904;28;20106;-85
2021/12/03 20:21:49;;;;;;;2.88;1.70;;;8.20;99.90;;;;;;5021061;28;20052;-85
2021/12/03 20:29:33;;;;;;;3.97;2.67;;;8.40;99.90;;;;;;5018184;28;20050;-85
2021/12/03 20:32:18;;;;;;;3.95;2.47;;;8.40;99.90;;;;;;5018019;28;20050;-86
2021/12/03 20:37:39;;;;;;;4.43;2.58;;;8.40;99.90;;;;;;5015451;28;20049;-85
2021/12/03 20:40:06;;;;;;;5.72;3.13;;;8.40;99.90;;;;;;5019511;28;20105;-85
2021/12/03 20:42:37;;;;;;;6.70;3.22;;;8.50;99.90;;;;;;5018276;28;20045;-86
2021/12/03 20:45:29;;;;;;;4.88;3.08;;;8.50;99.90;;;;;;5019278;28;20070;-86
2021/12/03 20:53:48;;;;;;;5.95;3.25;;;8.50;99.90;;;;;;5029924;28;20045;-85
2021/12/03 21:09:33;;;;;;;4.72;3.03;;;8.70;99.90;;;;;;5017243;28;20054;-86